Rancho Santa Fe, California
Current Conditions -  °F | °C
As of 10:26 PM on Saturday 25 Oct 2014 (Local Time) from KCRQ Reporting Station
Scattered Clouds Scattered Clouds  
Wind Chill: 67°   Ceiling: Unl
Heat Index: 67°   Visibility: 10mi
Dew Point: 62°   Wind: 5mph
Humidity: 84%   Direction: 190°S
Pressure: 30.02"   Gusts: NA
Location:  33.02°N, 117.2°W
Report Text: KCRQ 260526Z AUTO 19004KT 10SM SCT015 19/17 A3002 RMK AO2 T01940167
Loading
Personal Weather Stations






























Interactive Weather Map
Tropical Storm Tracking
New forecast layout! Learn more

10-Day Weather Forecast

Advertisements
Track Severe Weather on mobile